Time;durP1;ratioP1;P1;durP2;ratioP2;P2;SDS_P1;SDS_P2;PMS_P1;PMS_P2;Temp;Humidity;BMP_temperature;BMP_pressure;BME280_temperature;BME280_humidity;BME280_pressure;Samples;Min_cycle;Max_cycle;Signal;HPM_P1;HPM_P2
2021/12/22 00:01:51;;;;;;;;;;;0.00;99.90;;;;;;5135214;27;19924;-83
2021/12/22 00:04:21;;;;;;;;;;;-0.10;99.90;;;;;;5137131;27;19977;-82
2021/12/22 00:06:46;;;;;;;;;;;-0.20;99.90;;;;;;5119196;27;19923;-83
2021/12/22 00:09:12;;;;;;;;;;;-0.30;99.90;;;;;;5116152;28;19947;-82
2021/12/22 00:11:37;;;;;;;;;;;-0.30;99.90;;;;;;5082464;28;20010;-82
2021/12/22 00:14:03;;;;;;;;;;;-0.30;99.90;;;;;;5125138;27;19923;-82
2021/12/22 00:16:29;;;;;;;;;;;-0.30;99.90;;;;;;5119391;27;19924;-82
2021/12/22 00:18:54;;;;;;;;;;;-0.30;99.90;;;;;;5117501;27;19932;-82
2021/12/22 00:21:20;;;;;;;;;;;-0.30;99.90;;;;;;5119255;27;19923;-83
2021/12/22 00:23:46;;;;;;;;;;;-0.30;99.90;;;;;;5116014;28;20386;-82
2021/12/22 00:26:12;;;;;;;;;;;-0.20;99.90;;;;;;5102096;27;19930;-83
2021/12/22 00:28:40;;;;;;;;;;;-0.20;99.90;;;;;;5136078;27;19923;-83
2021/12/22 00:31:11;;;;;;;;;;;-0.20;99.90;;;;;;5102180;27;20267;-83
2021/12/22 00:33:45;;;;;;;;;;;-0.20;99.90;;;;;;5136613;27;20421;-82
2021/12/22 00:36:11;;;;;;;;;;;-0.20;99.90;;;;;;5135786;27;19931;-82
2021/12/22 00:38:36;;;;;;;;;;;-0.20;99.90;;;;;;5119041;27;19981;-82
2021/12/22 00:41:02;;;;;;;;;;;-0.20;99.90;;;;;;5118374;27;20406;-82
2021/12/22 00:43:27;;;;;;;;;;;-0.20;99.90;;;;;;5118928;27;19928;-82
2021/12/22 00:45:56;;;;;;;;;;;-0.20;99.90;;;;;;5135643;27;20360;-83
2021/12/22 00:48:22;;;;;;;;;;;-0.30;99.90;;;;;;5097766;28;19977;-83
2021/12/22 00:50:48;;;;;;;;;;;-0.20;99.90;;;;;;5088321;28;19924;-83
2021/12/22 00:53:13;;;;;;;;;;;-0.20;99.90;;;;;;5115223;28;19924;-82
2021/12/22 00:55:39;;;;;;;;;;;-0.30;99.90;;;;;;5084450;28;20027;-82
2021/12/22 00:58:04;;;;;;;;;;;-0.20;99.90;;;;;;5088549;28;19924;-82
2021/12/22 01:00:30;;;;;;;;;;;-0.40;99.90;;;;;;5063879;28;20007;-82
2021/12/22 01:02:56;;;;;;;;;;;-0.40;99.90;;;;;;5109901;28;19932;-83
2021/12/22 01:05:22;;;;;;;;;;;-0.50;99.90;;;;;;5094631;28;19949;-83
2021/12/22 01:07:48;;;;;;;;;;;-0.60;99.90;;;;;;5114279;28;19966;-82
2021/12/22 01:10:14;;;;;;;;;;;-0.60;99.90;;;;;;5093997;28;19928;-82
2021/12/22 01:12:40;;;;;;;;;;;-0.70;99.90;;;;;;5112471;28;20028;-82
2021/12/22 01:15:07;;;;;;;;;;;-0.70;99.90;;;;;;5114658;28;19963;-83
2021/12/22 01:17:39;;;;;;;;;;;-0.70;99.90;;;;;;5093898;28;19924;-82
2021/12/22 01:20:11;;;;;;;;;;;-0.70;99.90;;;;;;5086547;28;20030;-83
2021/12/22 01:25:09;;;;;;;;;;;-0.80;99.90;;;;;;5099184;28;19957;-82
2021/12/22 01:27:39;;;;;;;;;;;-0.70;99.90;;;;;;5077384;28;19924;-82
2021/12/22 01:30:06;;;;;;;;;;;-0.80;99.90;;;;;;5095826;28;19923;-83
2021/12/22 01:32:32;;;;;;;;;;;-0.80;99.90;;;;;;5084271;28;20376;-82
2021/12/22 01:34:57;;;;;;;;;;;-0.90;99.90;;;;;;5109012;28;19924;-83
2021/12/22 01:37:23;;;;;;;;;;;-0.80;99.90;;;;;;5112530;28;19927;-82
2021/12/22 01:39:49;;;;;;;;;;;-0.90;99.90;;;;;;5097219;28;19924;-82
2021/12/22 01:42:14;;;;;;;;;;;-0.90;99.90;;;;;;5097130;28;19931;-82
2021/12/22 01:44:59;;;;;;;;;;;-0.90;99.90;;;;;;5097511;28;19924;-82
2021/12/22 01:50:09;;;;;;;;;;;-1.10;99.90;;;;;;5134588;27;19923;-82
2021/12/22 01:52:35;;;;;;;;;;;-1.00;99.90;;;;;;5100599;27;19923;-83
2021/12/22 01:55:13;;;;;;;;;;;-1.10;99.90;;;;;;5116340;27;20341;-83
2021/12/22 01:57:47;;;;;;;;;;;-1.10;99.90;;;;;;5113927;28;20010;-83
2021/12/22 02:00:14;;;;;;;;;;;-1.10;99.90;;;;;;5115410;27;19931;-82
2021/12/22 02:02:40;;;;;;;;;;;-1.10;99.90;;;;;;5134517;27;19962;-82
2021/12/22 02:05:06;;;;;;;;;;;-1.20;99.90;;;;;;5099744;27;19958;-83
2021/12/22 02:07:31;;;;;;;;;;;-1.20;99.90;;;;;;5134479;27;19924;-82
2021/12/22 02:12:47;;;;;;;;;;;-1.20;99.90;;;;;;5134733;27;19930;-83
2021/12/22 02:15:12;;;;;;;;;;;-1.20;99.90;;;;;;5116296;27;19923;-83
2021/12/22 02:17:40;;;;;;;;;;;-1.30;99.90;;;;;;5117348;27;19923;-83
2021/12/22 02:20:06;;;;;;;;;;;-1.30;99.90;;;;;;5116979;27;19930;-83
2021/12/22 02:22:31;;;;;;;;;;;-1.30;99.90;;;;;;5100286;27;20049;-82
2021/12/22 02:25:03;;;;;;;;;;;-1.20;99.90;;;;;;5117618;27;20018;-82
2021/12/22 02:27:41;;;;;;;;;;;-1.20;99.90;;;;;;5134284;27;19924;-82
2021/12/22 02:30:14;;;;;;;;;;;-1.20;99.90;;;;;;5134245;27;19933;-83
2021/12/22 02:35:06;;;;;;;;;;;-1.30;99.90;;;;;;5134537;27;19988;-83
2021/12/22 02:37:41;;;;;;;;;;;-1.20;99.90;;;;;;5137938;27;20006;-81
2021/12/22 02:40:13;;;;;;;;;;;-1.30;99.90;;;;;;5143334;27;20357;-83
2021/12/22 02:42:39;;;;;;;;;;;-1.20;99.90;;;;;;5116950;27;19960;-82
2021/12/22 02:45:09;;;;;;;;;;;-1.20;99.90;;;;;;5118870;27;19923;-88
2021/12/22 02:47:35;;;;;;;;;;;-1.20;99.90;;;;;;5128670;27;19927;-82
2021/12/22 02:50:01;;;;;;;;;;;-1.20;99.90;;;;;;5144691;27;20377;-82
2021/12/22 02:52:34;;;;;;;;;;;-1.20;99.90;;;;;;5141431;27;19977;-83
2021/12/22 02:55:01;;;;;;;;;;;-1.20;99.90;;;;;;5141690;27;19923;-82
2021/12/22 02:57:31;;;;;;;;;;;-1.20;99.90;;;;;;5122906;27;19985;-82
2021/12/22 03:02:38;;;;;;;;;;;-1.20;99.90;;;;;;5132699;27;19976;-83
2021/12/22 03:05:05;;;;;;;;;;;-1.20;99.90;;;;;;5099332;27;19967;-82
2021/12/22 03:07:31;;;;;;;;;;;-1.20;99.90;;;;;;5133726;27;19923;-82
2021/12/22 03:10:02;;;;;;;;;;;-1.30;99.90;;;;;;5116451;28;20333;-83
2021/12/22 03:12:31;;;;;;;;;;;-1.30;99.90;;;;;;5112830;28;19927;-83
2021/12/22 03:14:57;;;;;;;;;;;-1.30;99.90;;;;;;5110050;28;20072;-82
2021/12/22 03:17:22;;;;;;;;;;;-1.30;99.90;;;;;;5124954;28;20375;-83
2021/12/22 03:19:48;;;;;;;;;;;-1.40;99.90;;;;;;5099486;27;19971;-83
2021/12/22 03:22:18;;;;;;;;;;;-1.40;99.90;;;;;;5136966;27;19969;-83
2021/12/22 03:24:46;;;;;;;;;;;-1.40;99.90;;;;;;5137934;27;19923;-82
2021/12/22 03:27:12;;;;;;;;;;;-1.40;99.90;;;;;;5100465;28;20006;-83
2021/12/22 03:29:38;;;;;;;;;;;-1.40;99.90;;;;;;5125891;27;20010;-83
2021/12/22 03:32:04;;;;;;;;;;;-1.40;99.90;;;;;;5116945;28;20384;-82
2021/12/22 03:34:30;;;;;;;;;;;-1.40;99.90;;;;;;5100286;28;19924;-83
2021/12/22 03:36:56;;;;;;;;;;;-1.40;99.90;;;;;;5120008;27;20348;-83
2021/12/22 03:39:21;;;;;;;;;;;-1.40;99.90;;;;;;5136812;27;20014;-83
2021/12/22 03:41:48;;;;;;;;;;;-1.40;99.90;;;;;;5120363;27;19931;-82
2021/12/22 03:44:13;;;;;;;;;;;-1.40;99.90;;;;;;5137561;27;20395;-83
2021/12/22 03:46:39;;;;;;;;;;;-1.50;99.90;;;;;;5120367;27;19923;-83
2021/12/22 03:49:06;;;;;;;;;;;-1.50;99.90;;;;;;5136804;27;19923;-83
2021/12/22 03:51:32;;;;;;;;;;;-1.50;99.90;;;;;;5136592;27;19923;-83
2021/12/22 03:53:57;;;;;;;;;;;-1.50;99.90;;;;;;5100758;27;20701;-82
2021/12/22 03:56:23;;;;;;;;;;;-1.60;99.90;;;;;;5116345;27;19931;-83
2021/12/22 03:58:49;;;;;;;;;;;-1.50;99.90;;;;;;5119907;27;19988;-83
2021/12/22 04:01:15;;;;;;;;;;;-1.50;99.90;;;;;;5136900;27;19929;-84
2021/12/22 04:03:43;;;;;;;;;;;-1.50;99.90;;;;;;5137396;27;19978;-82
2021/12/22 04:06:09;;;;;;;;;;;-1.50;99.90;;;;;;5120624;27;19961;-83
2021/12/22 04:08:35;;;;;;;;;;;-1.50;99.90;;;;;;5119877;27;19966;-82
2021/12/22 04:11:00;;;;;;;;;;;-1.60;99.90;;;;;;5119728;27;20364;-83
2021/12/22 04:13:26;;;;;;;;;;;-1.50;99.90;;;;;;5116356;28;19926;-82
2021/12/22 04:15:52;;;;;;;;;;;-1.60;99.90;;;;;;5126949;27;19924;-83
2021/12/22 04:18:18;;;;;;;;;;;-1.60;99.90;;;;;;5119446;27;19927;-84
2021/12/22 04:20:43;;;;;;;;;;;-1.60;99.90;;;;;;5136451;27;19924;-83
2021/12/22 04:23:09;;;;;;;;;;;-1.70;99.90;;;;;;5136490;27;19923;-83
2021/12/22 04:25:36;;;;;;;;;;;-1.70;99.90;;;;;;5136369;27;20376;-83
2021/12/22 04:28:05;;;;;;;;;;;-1.70;99.90;;;;;;5119410;27;19930;-82
2021/12/22 04:30:32;;;;;;;;;;;-1.70;99.90;;;;;;5119252;27;20398;-83
2021/12/22 04:32:59;;;;;;;;;;;-1.70;99.90;;;;;;5118806;27;20376;-83
2021/12/22 04:35:24;;;;;;;;;;;-1.70;99.90;;;;;;5098957;28;19924;-83
2021/12/22 04:37:50;;;;;;;;;;;-1.70;99.90;;;;;;5118517;27;19929;-83
2021/12/22 04:40:16;;;;;;;;;;;-1.70;99.90;;;;;;5118985;27;19957;-84
2021/12/22 04:42:42;;;;;;;;;;;-1.80;99.90;;;;;;5118591;27;19931;-83
2021/12/22 04:45:08;;;;;;;;;;;-1.70;99.90;;;;;;5136222;27;19930;-83
2021/12/22 04:47:34;;;;;;;;;;;-1.70;99.90;;;;;;5118054;27;20411;-83
2021/12/22 04:50:01;;;;;;;;;;;-1.80;99.90;;;;;;5125231;27;19927;-82
2021/12/22 04:52:34;;;;;;;;;;;-1.70;99.90;;;;;;5084747;27;20000;-83
2021/12/22 04:55:04;;;;;;;;;;;-1.70;99.90;;;;;;5119381;27;19923;-82
2021/12/22 04:57:30;;;;;;;;;;;-1.70;99.90;;;;;;5135638;27;19992;-83
2021/12/22 04:59:56;;;;;;;;;;;-1.70;99.90;;;;;;5118926;27;19924;-83
2021/12/22 05:02:21;;;;;;;;;;;-1.70;99.90;;;;;;5099336;27;19976;-84
2021/12/22 05:04:47;;;;;;;;;;;-1.80;99.90;;;;;;5113742;27;19974;-83
2021/12/22 05:07:13;;;;;;;;;;;-1.70;99.90;;;;;;5133148;27;19923;-82
2021/12/22 05:09:38;;;;;;;;;;;-1.70;99.90;;;;;;5118382;27;20001;-83
2021/12/22 05:12:04;;;;;;;;;;;-1.70;99.90;;;;;;5119031;27;19966;-82
2021/12/22 05:14:30;;;;;;;;;;;-1.70;99.90;;;;;;5118734;27;19929;-83
2021/12/22 05:17:00;;;;;;;;;;;-1.70;99.90;;;;;;5135633;27;19977;-83
2021/12/22 05:19:26;;;;;;;;;;;-1.70;99.90;;;;;;5135436;27;19927;-83
2021/12/22 05:21:52;;;;;;;;;;;-1.70;99.90;;;;;;5118468;27;20376;-82
2021/12/22 05:24:17;;;;;;;;;;;-1.70;99.90;;;;;;5118573;27;19972;-83
2021/12/22 05:26:43;;;;;;;;;;;-1.80;99.90;;;;;;5095213;28;19924;-83
2021/12/22 05:29:09;;;;;;;;;;;-1.80;99.90;;;;;;5107776;27;19938;-82
2021/12/22 05:31:34;;;;;;;;;;;-1.80;99.90;;;;;;5129496;27;19924;-82
2021/12/22 05:34:00;;;;;;;;;;;-1.80;99.90;;;;;;5147610;27;19919;-82
2021/12/22 05:36:26;;;;;;;;;;;-1.80;99.90;;;;;;5145461;27;19930;-84
2021/12/22 05:38:52;;;;;;;;;;;-1.80;99.90;;;;;;5135206;27;20368;-83
2021/12/22 05:41:17;;;;;;;;;;;-1.80;99.90;;;;;;5118005;27;20371;-83
2021/12/22 05:43:43;;;;;;;;;;;-1.90;99.90;;;;;;5134296;27;19977;-83
2021/12/22 05:46:08;;;;;;;;;;;-1.90;99.90;;;;;;5134920;27;20720;-83
2021/12/22 05:48:34;;;;;;;;;;;-1.90;99.90;;;;;;5134279;27;20010;-82
2021/12/22 05:51:01;;;;;;;;;;;-1.90;99.90;;;;;;5134039;27;20002;-83
2021/12/22 05:53:27;;;;;;;;;;;-1.90;99.90;;;;;;5113700;27;19934;-84
2021/12/22 05:55:54;;;;;;;;;;;-1.80;99.90;;;;;;5109632;27;19927;-83
2021/12/22 05:58:20;;;;;;;;;;;-1.90;99.90;;;;;;5129094;27;20382;-83
2021/12/22 06:00:45;;;;;;;;;;;-1.90;99.90;;;;;;5134063;27;20405;-83
2021/12/22 06:03:11;;;;;;;;;;;-1.90;99.90;;;;;;5133890;27;19923;-82
2021/12/22 06:05:37;;;;;;;;;;;-1.90;99.90;;;;;;5134189;27;19927;-82
2021/12/22 06:08:03;;;;;;;;;;;-1.90;99.90;;;;;;5117116;27;20368;-83
2021/12/22 06:10:29;;;;;;;;;;;-1.90;99.90;;;;;;5117225;27;19930;-82
2021/12/22 06:12:55;;;;;;;;;;;-2.00;99.90;;;;;;5134378;27;20359;-82
2021/12/22 06:15:20;;;;;;;;;;;-2.00;99.90;;;;;;5111108;27;20372;-83
2021/12/22 06:17:48;;;;;;;;;;;-2.00;99.90;;;;;;5114482;27;20010;-83
2021/12/22 06:20:14;;;;;;;;;;;-2.00;99.90;;;;;;5099290;27;19928;-82
2021/12/22 06:22:39;;;;;;;;;;;-2.00;99.90;;;;;;5134118;27;20424;-83
2021/12/22 06:25:05;;;;;;;;;;;-2.00;99.90;;;;;;5100859;27;19976;-82
2021/12/22 06:27:31;;;;;;;;;;;-2.00;99.90;;;;;;5100207;27;20284;-82
2021/12/22 06:29:56;;;;;;;;;;;-2.00;99.90;;;;;;5117095;27;19975;-82
2021/12/22 06:32:22;;;;;;;;;;;-2.00;99.90;;;;;;5117056;27;19965;-83
2021/12/22 06:34:47;;;;;;;;;;;-2.10;99.90;;;;;;5116986;27;19996;-83
2021/12/22 06:37:13;;;;;;;;;;;-2.10;99.90;;;;;;5133971;27;20435;-82
2021/12/22 06:39:39;;;;;;;;;;;-2.10;99.90;;;;;;5113208;28;19976;-83
2021/12/22 06:42:07;;;;;;;;;;;-2.10;99.90;;;;;;5106607;27;19951;-83
2021/12/22 06:44:32;;;;;;;;;;;-2.10;99.90;;;;;;5117004;27;20260;-82
2021/12/22 06:46:58;;;;;;;;;;;-2.10;99.90;;;;;;5100485;27;19972;-83
2021/12/22 06:49:23;;;;;;;;;;;-2.20;99.90;;;;;;5119855;27;19945;-83
2021/12/22 06:51:49;;;;;;;;;;;-2.20;99.90;;;;;;5136721;27;19929;-82
2021/12/22 06:54:15;;;;;;;;;;;-2.20;99.90;;;;;;5137318;27;19923;-82
2021/12/22 06:56:41;;;;;;;;;;;-2.20;99.90;;;;;;5136681;27;19927;-84
2021/12/22 06:59:06;;;;;;;;;;;-2.10;99.90;;;;;;5119686;27;19934;-84
2021/12/22 07:01:34;;;;;;;;;;;-2.20;99.90;;;;;;5136510;27;20450;-89
2021/12/22 07:04:00;;;;;;;;;;;-2.20;99.90;;;;;;5135906;27;19922;-85
2021/12/22 07:06:26;;;;;;;;;;;-2.20;99.90;;;;;;5136562;27;19964;-85
2021/12/22 07:08:51;;;;;;;;;;;-2.20;99.90;;;;;;5102959;27;19923;-85
2021/12/22 07:11:17;;;;;;;;;;;-2.20;99.90;;;;;;5115921;27;20002;-84
2021/12/22 07:13:43;;;;;;;;;;;-2.20;99.90;;;;;;5136668;27;19930;-83
2021/12/22 07:16:08;;;;;;;;;;;-2.20;99.90;;;;;;5136577;27;19923;-83
2021/12/22 07:18:34;;;;;;;;;;;-2.20;99.90;;;;;;5119762;27;19967;-84
2021/12/22 07:21:00;;;;;;;;;;;-2.20;99.90;;;;;;5102492;27;19946;-83
2021/12/22 07:23:26;;;;;;;;;;;-2.30;99.90;;;;;;5136813;27;20009;-83
2021/12/22 07:25:51;;;;;;;;;;;-2.20;99.90;;;;;;5119640;27;19930;-81
2021/12/22 07:28:17;;;;;;;;;;;-2.20;99.90;;;;;;5102914;27;19972;-81
2021/12/22 07:30:42;;;;;;;;;;;-2.20;99.90;;;;;;5102735;27;20284;-83
2021/12/22 07:33:08;;;;;;;;;;;-2.20;99.90;;;;;;5118916;27;19923;-82
2021/12/22 07:36:01;;;;;;;;;;;-2.20;99.90;;;;;;5119049;27;19968;-82
2021/12/22 07:38:38;;;;;;;;;;;-2.20;99.90;;;;;;5119564;27;19919;-82
2021/12/22 07:41:05;;;;;;;;;;;-2.30;99.90;;;;;;5118935;27;19930;-84
2021/12/22 07:43:31;;;;;;;;;;;-2.30;99.90;;;;;;5119824;27;19946;-85
2021/12/22 07:45:56;;;;;;;;;;;-2.20;99.90;;;;;;5119523;27;20414;-84
2021/12/22 07:48:22;;;;;;;;;;;-2.20;99.90;;;;;;5119190;27;19978;-85
2021/12/22 07:50:48;;;;;;;;;;;-2.30;99.90;;;;;;5119455;27;19923;-82
2021/12/22 07:53:13;;;;;;;;;;;-2.20;99.90;;;;;;5094519;27;19930;-81
2021/12/22 07:55:39;;;;;;;;;;;-2.20;99.90;;;;;;5119277;27;19948;-81
2021/12/22 07:58:04;;;;;;;;;;;-2.20;99.90;;;;;;5117765;27;20362;-80
2021/12/22 08:00:30;;;;;;;;;;;-2.20;99.90;;;;;;5115135;28;19931;-82
2021/12/22 08:02:56;;;;;;;;;;;-2.30;99.90;;;;;;5099491;28;20382;-82
2021/12/22 08:05:22;;;;;;;;;;;-2.20;99.90;;;;;;5132451;27;19987;-82
2021/12/22 08:07:47;;;;;;;;;;;-2.20;99.90;;;;;;5139316;27;19927;-83
2021/12/22 08:10:13;;;;;;;;;;;-2.20;99.90;;;;;;5123581;27;19923;-82
2021/12/22 08:12:38;;;;;;;;;;;-2.20;99.90;;;;;;5140846;27;19974;-82
2021/12/22 08:15:05;;;;;;;;;;;-2.20;99.90;;;;;;5140557;27;20042;-83
2021/12/22 08:17:32;;;;;;;;;;;-2.20;99.90;;;;;;5123909;27;19930;-82
2021/12/22 08:19:58;;;;;;;;;;;-2.10;99.90;;;;;;5123681;27;20060;-82
2021/12/22 08:22:24;;;;;;;;;;;-2.10;99.90;;;;;;5140953;27;20087;-82
2021/12/22 08:24:53;;;;;;;;;;;-2.00;99.90;;;;;;5146930;27;19970;-82
2021/12/22 08:27:18;;;;;;;;;;;-2.00;99.90;;;;;;5137429;27;19930;-81
2021/12/22 08:29:44;;;;;;;;;;;-2.00;99.90;;;;;;5151925;27;19923;-81
2021/12/22 08:32:11;;;;;;;;;;;-2.00;99.90;;;;;;5132863;27;19949;-83
2021/12/22 08:34:39;;;;;;;;;;;-2.00;99.90;;;;;;5132484;27;19949;-87
2021/12/22 08:39:50;;;;;;;;;;;-2.00;99.90;;;;;;5130195;27;19924;-83
2021/12/22 08:42:16;;;;;;;;;;;-2.00;99.90;;;;;;5104826;27;19940;-83
2021/12/22 08:44:41;;;;;;;;;;;-2.00;99.90;;;;;;5102475;27;19926;-83
2021/12/22 08:47:07;;;;;;;;;;;-1.90;99.90;;;;;;5118319;27;20864;-83
2021/12/22 08:49:33;;;;;;;;;;;-1.90;99.90;;;;;;5122913;27;20044;-82
2021/12/22 08:51:59;;;;;;;;;;;-1.90;99.90;;;;;;5139615;27;19919;-82
2021/12/22 08:54:25;;;;;;;;;;;-1.90;99.90;;;;;;5122641;27;19962;-82
2021/12/22 08:56:50;;;;;;;;;;;-1.90;99.90;;;;;;5138872;27;19926;-83
2021/12/22 08:59:16;;;;;;;;;;;-1.90;99.90;;;;;;5139267;27;20260;-83
2021/12/22 09:01:42;;;;;;;;;;;-1.90;99.90;;;;;;5122457;27;19919;-82
2021/12/22 09:04:08;;;;;;;;;;;-1.80;99.90;;;;;;5121875;27;19923;-84
2021/12/22 09:06:34;;;;;;;;;;;-1.80;99.90;;;;;;5118944;27;19920;-84
2021/12/22 09:09:00;;;;;;;;;;;-1.80;99.90;;;;;;5117742;27;19919;-81
2021/12/22 09:11:26;;;;;;;;;;;-1.80;99.90;;;;;;5119254;27;19919;-84
2021/12/22 09:13:51;;;;;;;;;;;-1.70;99.90;;;;;;5121068;27;19931;-83
2021/12/22 09:16:17;;;;;;;;;;;-1.60;99.90;;;;;;5130358;27;19929;-82
2021/12/22 09:18:43;;;;;;;;;;;-1.60;99.90;;;;;;5136682;27;19927;-82
2021/12/22 09:21:09;;;;;;;;;;;-1.50;99.90;;;;;;5118683;27;19919;-91
2021/12/22 09:23:35;;;;;;;;;;;-1.50;99.90;;;;;;5122107;27;19967;-85
2021/12/22 09:26:02;;;;;;;;;;;-1.50;99.90;;;;;;5122096;27;20013;-88
2021/12/22 09:28:27;;;;;;;;;;;-1.50;99.90;;;;;;5122914;27;19930;-85
2021/12/22 09:30:53;;;;;;;;;;;-1.50;99.90;;;;;;5138213;27;19919;-83
2021/12/22 09:33:19;;;;;;;;;;;-1.40;99.90;;;;;;5121295;27;20271;-83
2021/12/22 09:35:46;;;;;;;;;;;-1.40;99.90;;;;;;5121515;27;19944;-83
2021/12/22 09:38:12;;;;;;;;;;;-1.40;99.90;;;;;;5121133;27;19926;-86
2021/12/22 09:40:38;;;;;;;;;;;-1.30;99.90;;;;;;5138034;27;20294;-81
2021/12/22 09:43:06;;;;;;;;;;;-1.30;99.90;;;;;;5120867;27;20557;-84
2021/12/22 09:45:34;;;;;;;;;;;-1.20;99.90;;;;;;5103927;27;19983;-83
2021/12/22 09:50:45;;;;;;;;;;;-1.10;99.90;;;;;;5131914;27;20320;-82
2021/12/22 09:53:10;;;;;;;;;;;-1.10;99.90;;;;;;5130981;27;19919;-82
2021/12/22 09:55:36;;;;;;;;;;;-1.10;99.90;;;;;;5120079;27;19927;-82
2021/12/22 09:58:03;;;;;;;;;;;-1.00;99.90;;;;;;5134776;27;20005;-81
2021/12/22 10:00:29;;;;;;;;;;;-1.00;99.90;;;;;;5128452;27;20256;-82
2021/12/22 10:02:55;;;;;;;;;;;-1.00;99.90;;;;;;5126659;27;19926;-86
2021/12/22 10:05:20;;;;;;;;;;;-1.00;99.90;;;;;;5137569;27;19919;-85
2021/12/22 10:08:03;;;;;;;;;;;-0.90;99.90;;;;;;5115645;27;19987;-85
2021/12/22 10:10:30;;;;;;;;;;;-0.90;99.90;;;;;;5125196;27;19927;-81
2021/12/22 10:13:09;;;;;;;;;;;-0.90;99.90;;;;;;5100921;27;19920;-82
2021/12/22 10:15:36;;;;;;;;;;;-0.90;99.90;;;;;;5100642;27;20046;-83
2021/12/22 10:18:11;;;;;;;;;;;-0.80;99.90;;;;;;5117418;27;19971;-83
2021/12/22 10:20:37;;;;;;;;;;;-0.80;99.90;;;;;;5100236;27;19920;-82
2021/12/22 10:23:17;;;;;;;;;;;-0.80;99.90;;;;;;5118694;27;19919;-85
2021/12/22 10:25:42;;;;;;;;;;;-0.70;99.90;;;;;;5118410;27;19926;-83
2021/12/22 10:28:15;;;;;;;;;;;-0.70;99.90;;;;;;5115519;27;19918;-83
2021/12/22 10:30:42;;;;;;;;;;;-0.70;99.90;;;;;;5115383;27;19923;-83
2021/12/22 10:33:07;;;;;;;;;;;-0.60;99.90;;;;;;5137303;27;19931;-82
2021/12/22 10:35:34;;;;;;;;;;;-0.60;99.90;;;;;;5137911;27;19923;-83
2021/12/22 10:38:00;;;;;;;;;;;-0.60;99.90;;;;;;5130992;27;20356;-83
2021/12/22 10:40:46;;;;;;;;;;;-0.60;99.90;;;;;;5137370;27;19919;-83
2021/12/22 10:43:16;;;;;;;;;;;-0.60;99.90;;;;;;5137528;27;19920;-83
2021/12/22 10:45:41;;;;;;;;;;;-0.50;99.90;;;;;;5137970;27;20390;-82
2021/12/22 10:50:52;;;;;;;;;;;-0.50;99.90;;;;;;5123281;27;19927;-84
2021/12/22 10:53:18;;;;;;;;;;;-0.50;99.90;;;;;;5137704;27;20326;-90
2021/12/22 10:55:46;;;;;;;;;;;-0.50;99.90;;;;;;5137465;27;19955;-84
2021/12/22 10:58:16;;;;;;;;;;;-0.50;99.90;;;;;;5137301;27;19926;-85
2021/12/22 11:00:42;;;;;;;;;;;-0.40;99.90;;;;;;5136908;27;19926;-84
2021/12/22 11:03:09;;;;;;;;;;;-0.40;99.90;;;;;;5119168;27;19919;-83
2021/12/22 11:05:42;;;;;;;;;;;-0.30;99.90;;;;;;5134228;27;19919;-82
2021/12/22 11:08:17;;;;;;;;;;;-0.40;99.90;;;;;;5110465;27;19923;-82
2021/12/22 11:10:43;;;;;;;;;;;-0.30;99.90;;;;;;5107114;27;19919;-81
2021/12/22 11:13:08;;;;;;;;;;;-0.40;99.90;;;;;;5124394;27;19919;-80
2021/12/22 11:15:41;;;;;;;;;;;-0.20;99.90;;;;;;5136604;27;20408;-79
2021/12/22 11:18:10;;;;;;;;;;;-0.20;99.90;;;;;;5128371;27;20018;-81
2021/12/22 11:20:36;;;;;;;;;;;-0.20;99.90;;;;;;5126893;27;19926;-81
2021/12/22 11:23:11;;;;;;;;;;;-0.20;99.90;;;;;;5119029;27;19919;-81
2021/12/22 11:25:39;;;;;;;;;;;-0.10;99.90;;;;;;5118323;27;20127;-83
2021/12/22 11:28:05;;;;;;;;;;;0.00;99.90;;;;;;5112236;27;19958;-83
2021/12/22 11:30:30;;;;;;;;;;;0.00;99.90;;;;;;5116300;27;19926;-82
2021/12/22 11:32:56;;;;;;;;;;;0.10;99.90;;;;;;5133751;27;20015;-82
2021/12/22 11:35:22;;;;;;;;;;;0.00;99.90;;;;;;5105125;27;19919;-82
2021/12/22 11:37:48;;;;;;;;;;;0.00;99.90;;;;;;5136462;27;19923;-82
2021/12/22 11:40:17;;;;;;;;;;;0.00;99.90;;;;;;5122076;27;19919;-84
2021/12/22 11:42:43;;;;;;;;;;;-0.10;99.90;;;;;;5122323;27;19919;-82
2021/12/22 11:45:29;;;;;;;;;;;-0.10;99.90;;;;;;5131681;27;19919;-83
2021/12/22 11:47:57;;;;;;;;;;;-0.10;99.90;;;;;;5129055;27;20007;-82
2021/12/22 11:50:25;;;;;;;;;;;-0.10;99.90;;;;;;5116195;27;19931;-82
2021/12/22 11:53:08;;;;;;;;;;;-0.10;99.90;;;;;;5138052;27;19934;-81
2021/12/22 11:55:41;;;;;;;;;;;0.00;99.90;;;;;;5117548;27;19925;-82
2021/12/22 11:58:11;;;;;;;;;;;0.00;99.90;;;;;;5139182;27;20334;-84
2021/12/22 12:00:38;;;;;;;;;;;0.10;99.90;;;;;;5140154;27;19923;-83
2021/12/22 12:03:19;;;;;;;;;;;0.10;99.90;;;;;;5132931;27;19919;-83
2021/12/22 12:06:00;;;;;;;;;;;0.10;99.90;;;;;;5113828;27;20014;-83
2021/12/22 12:08:31;;;;;;;;;;;0.10;99.90;;;;;;5134941;27;19978;-84
2021/12/22 12:10:59;;;;;;;;;;;0.20;99.90;;;;;;5134253;27;19969;-85
2021/12/22 12:13:34;;;;;;;;;;;0.30;99.90;;;;;;5101362;27;19972;-85
2021/12/22 12:21:59;;;;;;;;;;;0.50;99.90;;;;;;5126705;27;20291;-85
2021/12/22 12:24:30;;;;;;;;;;;0.50;99.90;;;;;;5123849;27;19923;-85
2021/12/22 12:27:00;;;;;;;;;;;0.50;99.90;;;;;;5136219;27;20390;-85
2021/12/22 12:29:45;;;;;;;;;;;0.50;99.90;;;;;;5120448;27;20383;-85
2021/12/22 12:32:30;;;;;;;;;;;0.50;99.90;;;;;;5121277;27;20010;-85
2021/12/22 12:35:14;;;;;;;;;;;0.40;99.90;;;;;;5123270;27;20380;-85
2021/12/22 12:37:59;;;;;;;;;;;0.40;99.90;;;;;;5136639;27;20359;-85
2021/12/22 12:40:44;;;;;;;;;;;0.40;99.90;;;;;;5119599;27;19967;-85
2021/12/22 12:43:10;;;;;;;;;;;0.50;99.90;;;;;;5138561;27;20356;-85
2021/12/22 12:45:43;;;;;;;;;;;0.50;99.90;;;;;;5138312;27;19980;-86
2021/12/22 12:48:30;;;;;;;;;;;0.60;99.90;;;;;;5138357;27;20376;-85
2021/12/22 12:51:16;;;;;;;;;;;0.60;99.90;;;;;;5136511;27;20347;-86
2021/12/22 12:53:43;;;;;;;;;;;0.60;99.90;;;;;;5121296;27;20275;-86
2021/12/22 12:56:09;;;;;;;;;;;0.50;99.90;;;;;;5121655;27;20378;-86
2021/12/22 12:58:49;;;;;;;;;;;0.60;99.90;;;;;;5120875;27;19930;-85
2021/12/22 13:01:15;;;;;;;;;;;0.60;99.90;;;;;;5117706;27;19923;-86
2021/12/22 13:03:48;;;;;;;;;;;0.70;99.90;;;;;;5117856;27;20399;-86
2021/12/22 13:06:14;;;;;;;;;;;0.80;99.90;;;;;;5101105;27;19923;-86
2021/12/22 13:08:40;;;;;;;;;;;0.90;99.90;;;;;;5100434;27;19930;-85
2021/12/22 13:11:13;;;;;;;;;;;1.10;99.90;;;;;;5117313;27;20422;-86
2021/12/22 13:16:24;;;;;;;;;;;1.00;99.90;;;;;;5082423;27;20284;-86
2021/12/22 13:18:50;;;;;;;;;;;1.00;99.90;;;;;;5116771;27;19968;-85
2021/12/22 13:21:15;;;;;;;;;;;0.80;99.90;;;;;;5098858;27;19924;-86
2021/12/22 13:23:41;;;;;;;;;;;0.70;99.90;;;;;;5099927;27;19929;-84
2021/12/22 13:26:07;;;;;;;;;;;0.60;99.90;;;;;;5117326;27;19927;-86
2021/12/22 13:28:35;;;;;;;;;;;0.50;99.90;;;;;;5121614;27;20505;-86
2021/12/22 13:31:05;;;;;;;;;;;0.30;99.90;;;;;;5115697;27;19967;-87
2021/12/22 13:33:34;;;;;;;;;;;0.30;99.90;;;;;;5103951;27;19930;-85
2021/12/22 13:36:12;;;;;;;;;;;0.20;99.90;;;;;;5130469;27;20026;-86
2021/12/22 13:38:44;;;;;;;;;;;0.30;99.90;;;;;;5100454;27;19934;-84
2021/12/22 13:41:11;;;;;;;;;;;0.20;99.90;;;;;;5123630;27;20359;-85
2021/12/22 13:43:41;;;;;;;;;;;0.20;99.90;;;;;;5111385;27;19990;-85
2021/12/22 13:46:06;;;;;;;;;;;0.20;99.90;;;;;;5125633;27;19952;-85
2021/12/22 13:48:34;;;;;;;;;;;0.30;99.90;;;;;;5130766;27;19932;-85
2021/12/22 13:51:02;;;;;;;;;;;0.20;99.90;;;;;;5137519;27;19923;-86
2021/12/22 13:53:30;;;;;;;;;;;0.30;99.90;;;;;;5121665;27;19927;-85
2021/12/22 13:55:57;;;;;;;;;;;0.30;99.90;;;;;;5117976;27;19938;-85
2021/12/22 13:58:36;;;;;;;;;;;0.20;99.90;;;;;;5134014;27;19994;-84
2021/12/22 14:01:22;;;;;;;;;;;0.20;99.90;;;;;;5149619;27;20017;-84
2021/12/22 14:03:49;;;;;;;;;;;0.20;99.90;;;;;;5124928;27;19930;-84
2021/12/22 14:06:20;;;;;;;;;;;0.10;99.90;;;;;;5122600;27;19938;-84
2021/12/22 14:08:57;;;;;;;;;;;0.20;99.90;;;;;;5119928;27;19930;-84
2021/12/22 14:11:27;;;;;;;;;;;0.10;99.90;;;;;;5106317;27;19927;-84
2021/12/22 14:13:53;;;;;;;;;;;0.10;99.90;;;;;;5137040;27;19923;-85
2021/12/22 14:16:28;;;;;;;;;;;0.00;99.90;;;;;;5136903;27;19923;-85
2021/12/22 14:18:57;;;;;;;;;;;0.00;99.90;;;;;;5119798;27;20327;-85
2021/12/22 14:21:24;;;;;;;;;;;0.00;99.90;;;;;;5115957;28;19934;-85
2021/12/22 14:23:59;;;;;;;;;;;-0.10;99.90;;;;;;5099101;27;19934;-85
2021/12/22 14:26:26;;;;;;;;;;;-0.10;99.90;;;;;;5099112;27;19923;-83
2021/12/22 14:29:18;;;;;;;;;;;-0.10;99.90;;;;;;5110486;27;19965;-82
2021/12/22 14:32:16;;;;;;;;;;;-0.10;99.90;;;;;;5115016;27;19924;-87
2021/12/22 14:34:57;;;;;;;;;;;-0.20;99.90;;;;;;5064229;27;19923;-84
2021/12/22 14:37:29;;;;;;;;;;;-0.20;99.90;;;;;;5136883;27;19927;-86
2021/12/22 14:39:55;;;;;;;;;;;-0.20;99.90;;;;;;5119033;27;20022;-85
2021/12/22 14:42:24;;;;;;;;;;;-0.30;99.90;;;;;;5119266;27;19930;-84
2021/12/22 14:44:50;;;;;;;;;;;-0.30;99.90;;;;;;5118965;27;19930;-84
2021/12/22 14:47:17;;;;;;;;;;;-0.40;99.90;;;;;;5137178;27;19923;-83
2021/12/22 14:49:43;;;;;;;;;;;-0.40;99.90;;;;;;5123477;27;19927;-85
2021/12/22 14:52:08;;;;;;;;;;;-0.40;99.90;;;;;;5120436;27;20267;-84
2021/12/22 14:54:34;;;;;;;;;;;-0.40;99.90;;;;;;5118208;27;20006;-85